KMKO/MKO METAR and TAF weather

Enter ICAO airport designator
Station Type Date Time Source
KMKO METAR 2019/06/17 04:39 UTC NOAA

KMKO 170439Z AUTO 18004KT 10SM SCT026 OVC045 21/19 A2988 RMK AO2 T02110194


Station Type Date Time Source
KMKO Decoded METAR 2019/06/17 04:39 UTC NOAA

MUSKOGEE DAVIS FIELD, OK, United States (KMKO) 35-39N 95-22W 185M
Jun 17, 2019 - 12:39 AM EDT / 2019.06.17 0439 UTC
Wind: from the S (180 degrees) at 5 MPH (4 KT):0
Visibility: 10 mile(s):0
Sky conditions: overcast
Temperature: 70.0 F (21.1 C)
Dew Point: 66.9 F (19.4 C)
Relative Humidity: 90%
Pressure (altimeter): 29.88 in. Hg (1011 hPa)
ob: KMKO 170439Z AUTO 18004KT 10SM SCT026 OVC045 21/19 A2988 RMK AO2 T02110194
cycle: 4

Station Type Date Time Source
KMKO TAF UTC NOAA

Error!

Example: see airport list